sensor_id;sensor_type;location;lat;lon;timestamp;pressure;altitude;pressure_sealevel;temperature;humidity
8573;BME280;4324;42.012;24.872;2022-12-07T00:01:42;99141.19;;;6.38;100.00
8573;BME280;4324;42.012;24.872;2022-12-07T00:04:12;99120.28;;;6.26;100.00
8573;BME280;4324;42.012;24.872;2022-12-07T00:06:40;99135.53;;;6.42;100.00
8573;BME280;4324;42.012;24.872;2022-12-07T00:09:10;99138.03;;;6.44;100.00
8573;BME280;4324;42.012;24.872;2022-12-07T00:11:38;99126.66;;;6.34;100.00
8573;BME280;4324;42.012;24.872;2022-12-07T00:14:07;99142.47;;;6.43;100.00
8573;BME280;4324;42.012;24.872;2022-12-07T00:16:35;99130.00;;;6.36;100.00
8573;BME280;4324;42.012;24.872;2022-12-07T00:19:02;99141.63;;;6.43;100.00
8573;BME280;4324;42.012;24.872;2022-12-07T00:21:32;99136.38;;;6.43;100.00
8573;BME280;4324;42.012;24.872;2022-12-07T00:24:00;99136.38;;;6.43;100.00
8573;BME280;4324;42.012;24.872;2022-12-07T00:26:29;99135.53;;;6.42;100.00
8573;BME280;4324;42.012;24.872;2022-12-07T00:28:58;99136.09;;;6.36;100.00
8573;BME280;4324;42.012;24.872;2022-12-07T00:31:27;99139.53;;;6.37;100.00
8573;BME280;4324;42.012;24.872;2022-12-07T00:33:55;99148.25;;;6.37;100.00
8573;BME280;4324;42.012;24.872;2022-12-07T00:36:23;99152.00;;;6.35;100.00
8573;BME280;4324;42.012;24.872;2022-12-07T00:38:51;99133.97;;;6.20;100.00
8573;BME280;4324;42.012;24.872;2022-12-07T00:41:20;99142.28;;;6.25;100.00
8573;BME280;4324;42.012;24.872;2022-12-07T00:43:48;99148.00;;;6.30;100.00
8573;BME280;4324;42.012;24.872;2022-12-07T00:46:16;99128.00;;;6.18;100.00
8573;BME280;4324;42.012;24.872;2022-12-07T00:48:43;99145.34;;;6.30;100.00
8573;BME280;4324;42.012;24.872;2022-12-07T00:51:12;99117.34;;;6.10;100.00
8573;BME280;4324;42.012;24.872;2022-12-07T00:53:39;99122.34;;;6.13;100.00
8573;BME280;4324;42.012;24.872;2022-12-07T00:56:11;99104.56;;;5.96;100.00
8573;BME280;4324;42.012;24.872;2022-12-07T00:58:39;99126.50;;;6.16;100.00
8573;BME280;4324;42.012;24.872;2022-12-07T01:01:07;99124.69;;;6.16;100.00
8573;BME280;4324;42.012;24.872;2022-12-07T01:03:34;99131.47;;;6.19;100.00
8573;BME280;4324;42.012;24.872;2022-12-07T01:06:02;99115.25;;;6.04;100.00
8573;BME280;4324;42.012;24.872;2022-12-07T01:08:31;99114.41;;;6.03;100.00
8573;BME280;4324;42.012;24.872;2022-12-07T01:10:59;99126.47;;;6.06;100.00
8573;BME280;4324;42.012;24.872;2022-12-07T01:13:28;99132.59;;;6.16;100.00
8573;BME280;4324;42.012;24.872;2022-12-07T01:15:57;99118.84;;;6.03;100.00
8573;BME280;4324;42.012;24.872;2022-12-07T01:18:25;99134.66;;;6.13;100.00
8573;BME280;4324;42.012;24.872;2022-12-07T01:21:00;99131.88;;;6.14;100.00
8573;BME280;4324;42.012;24.872;2022-12-07T01:23:28;99125.22;;;6.10;100.00
8573;BME280;4324;42.012;24.872;2022-12-07T01:25:56;99105.28;;;5.98;100.00
8573;BME280;4324;42.012;24.872;2022-12-07T01:28:23;99123.56;;;6.09;100.00
8573;BME280;4324;42.012;24.872;2022-12-07T01:31:03;99102.22;;;5.93;100.00
8573;BME280;4324;42.012;24.872;2022-12-07T01:33:32;99110.28;;;6.01;100.00
8573;BME280;4324;42.012;24.872;2022-12-07T01:36:03;99109.56;;;5.99;100.00
8573;BME280;4324;42.012;24.872;2022-12-07T01:38:31;99026.13;;;5.51;100.00
8573;BME280;4324;42.012;24.872;2022-12-07T01:40:59;99006.06;;;5.40;100.00
8573;BME280;4324;42.012;24.872;2022-12-07T01:43:28;99079.19;;;5.85;100.00
8573;BME280;4324;42.012;24.872;2022-12-07T01:45:56;99078.38;;;5.85;100.00
8573;BME280;4324;42.012;24.872;2022-12-07T01:48:27;99086.69;;;5.90;100.00
8573;BME280;4324;42.012;24.872;2022-12-07T01:50:56;99068.94;;;5.82;100.00
8573;BME280;4324;42.012;24.872;2022-12-07T01:53:28;99068.13;;;5.81;100.00
8573;BME280;4324;42.012;24.872;2022-12-07T01:55:57;99088.25;;;5.92;100.00
8573;BME280;4324;42.012;24.872;2022-12-07T01:58:25;99090.75;;;5.94;100.00
8573;BME280;4324;42.012;24.872;2022-12-07T02:00:53;99092.56;;;5.93;100.00
8573;BME280;4324;42.012;24.872;2022-12-07T02:03:25;99087.38;;;5.92;100.00
8573;BME280;4324;42.012;24.872;2022-12-07T02:05:54;99075.31;;;5.89;100.00
8573;BME280;4324;42.012;24.872;2022-12-07T02:08:21;99063.69;;;5.82;100.00
8573;BME280;4324;42.012;24.872;2022-12-07T02:10:48;99082.38;;;5.89;100.00
8573;BME280;4324;42.012;24.872;2022-12-07T02:13:18;99065.38;;;5.83;100.00
8573;BME280;4324;42.012;24.872;2022-12-07T02:15:58;99062.03;;;5.81;100.00
8573;BME280;4324;42.012;24.872;2022-12-07T02:18:44;99076.19;;;5.90;100.00
8573;BME280;4324;42.012;24.872;2022-12-07T02:21:14;99079.75;;;5.89;100.00
8573;BME280;4324;42.012;24.872;2022-12-07T02:24:07;99034.75;;;5.63;100.00
8573;BME280;4324;42.012;24.872;2022-12-07T02:29:45;99056.47;;;5.74;100.00
8573;BME280;4324;42.012;24.872;2022-12-07T02:32:16;99036.69;;;5.61;100.00
8573;BME280;4324;42.012;24.872;2022-12-07T02:34:48;99069.81;;;5.82;100.00
8573;BME280;4324;42.012;24.872;2022-12-07T02:37:29;99059.50;;;5.70;100.00
8573;BME280;4324;42.012;24.872;2022-12-07T02:40:04;99070.06;;;5.79;100.00
8573;BME280;4324;42.012;24.872;2022-12-07T02:42:36;99064.81;;;5.79;100.00
8573;BME280;4324;42.012;24.872;2022-12-07T02:45:09;99060.34;;;5.70;100.00
8573;BME280;4324;42.012;24.872;2022-12-07T02:47:37;99071.03;;;5.78;100.00
8573;BME280;4324;42.012;24.872;2022-12-07T02:50:07;99074.50;;;5.79;100.00
8573;BME280;4324;42.012;24.872;2022-12-07T02:52:34;99055.34;;;5.67;100.00
8573;BME280;4324;42.012;24.872;2022-12-07T02:55:01;99064.09;;;5.77;100.00
8573;BME280;4324;42.012;24.872;2022-12-07T02:57:44;99054.81;;;5.73;100.00
8573;BME280;4324;42.012;24.872;2022-12-07T03:00:16;99036.00;;;5.68;100.00
8573;BME280;4324;42.012;24.872;2022-12-07T03:02:51;99044.88;;;5.77;100.00
8573;BME280;4324;42.012;24.872;2022-12-07T03:05:49;99041.00;;;5.71;100.00
8573;BME280;4324;42.012;24.872;2022-12-07T03:08:25;99012.22;;;5.60;100.00
8573;BME280;4324;42.012;24.872;2022-12-07T03:11:00;99038.78;;;5.76;100.00
8573;BME280;4324;42.012;24.872;2022-12-07T03:13:32;98983.97;;;5.43;100.00
8573;BME280;4324;42.012;24.872;2022-12-07T03:16:09;99010.00;;;5.65;100.00
8573;BME280;4324;42.012;24.872;2022-12-07T03:18:43;99038.53;;;5.79;100.00
8573;BME280;4324;42.012;24.872;2022-12-07T03:21:14;99027.88;;;5.71;100.00
8573;BME280;4324;42.012;24.872;2022-12-07T03:23:45;99033.28;;;5.79;100.00
8573;BME280;4324;42.012;24.872;2022-12-07T03:26:17;99023.28;;;5.73;100.00
8573;BME280;4324;42.012;24.872;2022-12-07T03:28:49;99023.75;;;5.78;100.00
8573;BME280;4324;42.012;24.872;2022-12-07T03:31:20;99032.56;;;5.77;100.00
8573;BME280;4324;42.012;24.872;2022-12-07T03:33:54;99018.88;;;5.64;100.00
8573;BME280;4324;42.012;24.872;2022-12-07T03:36:28;99043.50;;;5.73;100.00
8573;BME280;4324;42.012;24.872;2022-12-07T03:39:00;99038.78;;;5.76;100.00
8573;BME280;4324;42.012;24.872;2022-12-07T03:41:31;99051.22;;;5.74;100.00
8573;BME280;4324;42.012;24.872;2022-12-07T03:44:00;99053.16;;;5.72;100.00
8573;BME280;4324;42.012;24.872;2022-12-07T03:46:35;99045.16;;;5.74;100.00
8573;BME280;4324;42.012;24.872;2022-12-07T03:49:08;99054.72;;;5.85;100.00
8573;BME280;4324;42.012;24.872;2022-12-07T03:51:43;99014.41;;;5.55;100.00
8573;BME280;4324;42.012;24.872;2022-12-07T03:54:17;99060.13;;;5.83;100.00
8573;BME280;4324;42.012;24.872;2022-12-07T03:56:46;98985.31;;;5.37;100.00
8573;BME280;4324;42.012;24.872;2022-12-07T03:59:15;99024.50;;;5.59;100.00
8573;BME280;4324;42.012;24.872;2022-12-07T04:01:47;99043.06;;;5.77;100.00
8573;BME280;4324;42.012;24.872;2022-12-07T04:04:17;99045.97;;;5.74;100.00
8573;BME280;4324;42.012;24.872;2022-12-07T04:06:44;98984.94;;;5.42;100.00
8573;BME280;4324;42.012;24.872;2022-12-07T04:09:11;98992.81;;;5.42;100.00
8573;BME280;4324;42.012;24.872;2022-12-07T04:11:40;99041.84;;;5.72;100.00
8573;BME280;4324;42.012;24.872;2022-12-07T04:14:06;99049.31;;;5.76;100.00
8573;BME280;4324;42.012;24.872;2022-12-07T04:16:48;99039.06;;;5.73;100.00
8573;BME280;4324;42.012;24.872;2022-12-07T04:19:17;99047.41;;;5.78;100.00
8573;BME280;4324;42.012;24.872;2022-12-07T04:21:45;99045.44;;;5.80;100.00
8573;BME280;4324;42.012;24.872;2022-12-07T04:24:12;99037.56;;;5.80;100.00
8573;BME280;4324;42.012;24.872;2022-12-07T04:26:40;99046.28;;;5.81;100.00
8573;BME280;4324;42.012;24.872;2022-12-07T04:29:07;99049.59;;;5.83;100.00
8573;BME280;4324;42.012;24.872;2022-12-07T04:31:34;99031.63;;;5.78;100.00
8573;BME280;4324;42.012;24.872;2022-12-07T04:34:03;99036.75;;;5.90;100.00
8573;BME280;4324;42.012;24.872;2022-12-07T04:36:31;99005.16;;;5.70;100.00
8573;BME280;4324;42.012;24.872;2022-12-07T04:38:58;99012.69;;;5.85;100.00
8573;BME280;4324;42.012;24.872;2022-12-07T04:41:25;99023.09;;;5.96;100.00
8573;BME280;4324;42.012;24.872;2022-12-07T04:43:54;99014.06;;;5.89;100.00
8573;BME280;4324;42.012;24.872;2022-12-07T04:46:21;99023.09;;;5.96;100.00
8573;BME280;4324;42.012;24.872;2022-12-07T04:48:49;99014.06;;;5.89;100.00
8573;BME280;4324;42.012;24.872;2022-12-07T04:51:19;99016.19;;;5.95;100.00
8573;BME280;4324;42.012;24.872;2022-12-07T04:53:47;99009.22;;;5.84;100.00
8573;BME280;4324;42.012;24.872;2022-12-07T04:56:15;99012.00;;;5.82;100.00
8573;BME280;4324;42.012;24.872;2022-12-07T04:58:43;99004.66;;;5.76;100.00
8573;BME280;4324;42.012;24.872;2022-12-07T05:01:12;98985.41;;;5.66;100.00
8573;BME280;4324;42.012;24.872;2022-12-07T05:03:43;98924.63;;;5.21;100.00
8573;BME280;4324;42.012;24.872;2022-12-07T05:06:11;98961.00;;;5.45;100.00
8573;BME280;4324;42.012;24.872;2022-12-07T05:08:42;98967.69;;;5.49;100.00
8573;BME280;4324;42.012;24.872;2022-12-07T05:11:10;98999.25;;;5.68;100.00
8573;BME280;4324;42.012;24.872;2022-12-07T05:14:00;98968.88;;;5.35;100.00
8573;BME280;4324;42.012;24.872;2022-12-07T05:16:30;99025.50;;;5.68;100.00
8573;BME280;4324;42.012;24.872;2022-12-07T05:19:11;99016.34;;;5.63;100.00
8573;BME280;4324;42.012;24.872;2022-12-07T05:21:41;99037.66;;;5.69;100.00
8573;BME280;4324;42.012;24.872;2022-12-07T05:24:11;99010.81;;;5.56;100.00
8573;BME280;4324;42.012;24.872;2022-12-07T05:26:38;99036.00;;;5.68;100.00
8573;BME280;4324;42.012;24.872;2022-12-07T05:29:05;99044.84;;;5.67;100.00
8573;BME280;4324;42.012;24.872;2022-12-07T05:31:33;99039.59;;;5.67;100.00
8573;BME280;4324;42.012;24.872;2022-12-07T05:34:01;99023.38;;;5.52;100.00
8573;BME280;4324;42.012;24.872;2022-12-07T05:36:28;99033.91;;;5.62;100.00
8573;BME280;4324;42.012;24.872;2022-12-07T05:38:56;99040.56;;;5.66;100.00
8573;BME280;4324;42.012;24.872;2022-12-07T05:41:42;98980.47;;;5.32;100.00
8573;BME280;4324;42.012;24.872;2022-12-07T05:44:39;99036.84;;;5.69;100.00
8573;BME280;4324;42.012;24.872;2022-12-07T05:50:19;99032.41;;;5.69;100.00
8573;BME280;4324;42.012;24.872;2022-12-07T05:52:53;99033.81;;;5.73;100.00
8573;BME280;4324;42.012;24.872;2022-12-07T05:55:20;99016.25;;;5.64;100.00
8573;BME280;4324;42.012;24.872;2022-12-07T05:57:48;99043.53;;;5.82;100.00
8573;BME280;4324;42.012;24.872;2022-12-07T06:00:29;99017.78;;;5.76;100.00
8573;BME280;4324;42.012;24.872;2022-12-07T06:02:56;99025.53;;;5.88;100.00
8573;BME280;4324;42.012;24.872;2022-12-07T06:05:23;99045.50;;;6.00;100.00
8573;BME280;4324;42.012;24.872;2022-12-07T06:07:50;99035.44;;;6.05;100.00
8573;BME280;4324;42.012;24.872;2022-12-07T06:10:17;98985.28;;;5.77;100.00
8573;BME280;4324;42.012;24.872;2022-12-07T06:12:44;99040.84;;;6.13;100.00
8573;BME280;4324;42.012;24.872;2022-12-07T06:15:13;99038.31;;;6.12;100.00
8573;BME280;4324;42.012;24.872;2022-12-07T06:17:40;99032.25;;;6.11;100.00
8573;BME280;4324;42.012;24.872;2022-12-07T06:20:07;99007.31;;;5.96;100.00
8573;BME280;4324;42.012;24.872;2022-12-07T06:22:34;99042.94;;;6.19;100.00
8573;BME280;4324;42.012;24.872;2022-12-07T06:25:01;99062.16;;;6.29;100.00
8573;BME280;4324;42.012;24.872;2022-12-07T06:27:29;99064.09;;;6.37;100.00
8573;BME280;4324;42.012;24.872;2022-12-07T06:29:59;99052.75;;;6.37;100.00
8573;BME280;4324;42.012;24.872;2022-12-07T06:32:33;99059.56;;;6.49;100.00
8573;BME280;4324;42.012;24.872;2022-12-07T06:35:00;99036.44;;;6.43;100.00
8573;BME280;4324;42.012;24.872;2022-12-07T06:37:27;99031.16;;;6.43;100.00
8573;BME280;4324;42.012;24.872;2022-12-07T06:39:54;99055.81;;;6.61;100.00
8573;BME280;4324;42.012;24.872;2022-12-07T06:42:21;99039.19;;;6.51;100.00
8573;BME280;4324;42.012;24.872;2022-12-07T06:44:48;99053.84;;;6.63;100.00
8573;BME280;4324;42.012;24.872;2022-12-07T06:47:15;99037.13;;;6.64;100.00
8573;BME280;4324;42.012;24.872;2022-12-07T06:49:44;99054.81;;;6.82;100.00
8573;BME280;4324;42.012;24.872;2022-12-07T06:52:11;99049.13;;;6.76;100.00
8573;BME280;4324;42.012;24.872;2022-12-07T06:54:38;99064.22;;;6.94;100.00
8573;BME280;4324;42.012;24.872;2022-12-07T06:57:05;99002.19;;;6.62;100.00
8573;BME280;4324;42.012;24.872;2022-12-07T06:59:32;99046.19;;;6.99;100.00
8573;BME280;4324;42.012;24.872;2022-12-07T07:02:00;99066.66;;;7.15;100.00
8573;BME280;4324;42.012;24.872;2022-12-07T07:04:28;99053.63;;;7.13;100.00
8573;BME280;4324;42.012;24.872;2022-12-07T07:06:56;99055.41;;;7.22;100.00
8573;BME280;4324;42.012;24.872;2022-12-07T07:09:23;99012.22;;;7.06;100.00
8573;BME280;4324;42.012;24.872;2022-12-07T07:11:50;99024.63;;;7.23;100.00
8573;BME280;4324;42.012;24.872;2022-12-07T07:14:18;99059.47;;;7.54;100.00
8573;BME280;4324;42.012;24.872;2022-12-07T07:16:47;99018.06;;;7.37;100.00
8573;BME280;4324;42.012;24.872;2022-12-07T07:19:14;99002.53;;;7.34;100.00
8573;BME280;4324;42.012;24.872;2022-12-07T07:22:04;99057.81;;;7.81;100.00
8573;BME280;4324;42.012;24.872;2022-12-07T07:24:33;99063.16;;;7.89;100.00
8573;BME280;4324;42.012;24.872;2022-12-07T07:27:00;99050.97;;;7.88;100.00
8573;BME280;4324;42.012;24.872;2022-12-07T07:29:27;98964.94;;;7.41;100.00
8573;BME280;4324;42.012;24.872;2022-12-07T07:31:54;99060.56;;;8.07;100.00
8573;BME280;4324;42.012;24.872;2022-12-07T07:34:22;99067.75;;;8.14;100.00
8573;BME280;4324;42.012;24.872;2022-12-07T07:36:49;99047.22;;;8.08;100.00
8573;BME280;4324;42.012;24.872;2022-12-07T07:39:21;99034.72;;;8.10;100.00
8573;BME280;4324;42.012;24.872;2022-12-07T07:41:48;99068.16;;;8.37;100.00
8573;BME280;4324;42.012;24.872;2022-12-07T07:44:15;99043.19;;;8.32;100.00
8573;BME280;4324;42.012;24.872;2022-12-07T07:46:42;99027.34;;;8.32;100.00
8573;BME280;4324;42.012;24.872;2022-12-07T07:49:09;99042.75;;;8.54;100.00
8573;BME280;4324;42.012;24.872;2022-12-07T07:51:37;98984.09;;;8.24;100.00
8573;BME280;4324;42.012;24.872;2022-12-07T07:54:06;98982.97;;;8.27;100.00
8573;BME280;4324;42.012;24.872;2022-12-07T07:56:34;99056.31;;;8.77;100.00
8573;BME280;4324;42.012;24.872;2022-12-07T07:59:02;99067.75;;;8.86;100.00
8573;BME280;4324;42.012;24.872;2022-12-07T08:01:29;99037.81;;;8.77;100.00
8573;BME280;4324;42.012;24.872;2022-12-07T08:04:02;99067.88;;;9.02;100.00
8573;BME280;4324;42.012;24.872;2022-12-07T08:06:29;99048.06;;;8.98;100.00
8573;BME280;4324;42.012;24.872;2022-12-07T08:08:56;99065.66;;;9.15;100.00
8573;BME280;4324;42.012;24.872;2022-12-07T08:11:26;99013.34;;;8.93;100.00
8573;BME280;4324;42.012;24.872;2022-12-07T08:13:54;99052.13;;;9.18;100.00
8573;BME280;4324;42.012;24.872;2022-12-07T08:16:21;99045.38;;;9.16;100.00
8573;BME280;4324;42.012;24.872;2022-12-07T08:18:48;98979.13;;;8.83;100.00
8573;BME280;4324;42.012;24.872;2022-12-07T08:21:15;99059.19;;;9.36;100.00
8573;BME280;4324;42.012;24.872;2022-12-07T08:23:42;99053.59;;;9.39;100.00
8573;BME280;4324;42.012;24.872;2022-12-07T08:26:14;99052.28;;;9.43;100.00
8573;BME280;4324;42.012;24.872;2022-12-07T08:28:42;99034.56;;;9.35;100.00
8573;BME280;4324;42.012;24.872;2022-12-07T08:31:13;99048.16;;;9.49;100.00
8573;BME280;4324;42.012;24.872;2022-12-07T08:33:41;99034.78;;;9.42;100.00
8573;BME280;4324;42.012;24.872;2022-12-07T08:36:09;99002.97;;;9.26;100.00
8573;BME280;4324;42.012;24.872;2022-12-07T08:38:41;99040.91;;;9.51;100.00
8573;BME280;4324;42.012;24.872;2022-12-07T08:41:08;99052.53;;;9.58;100.00
8573;BME280;4324;42.012;24.872;2022-12-07T08:43:37;99006.44;;;9.26;100.00
8573;BME280;4324;42.012;24.872;2022-12-07T08:46:09;99017.91;;;9.35;100.00
8573;BME280;4324;42.012;24.872;2022-12-07T08:48:48;99030.78;;;9.38;100.00
8573;BME280;4324;42.012;24.872;2022-12-07T08:51:16;99032.28;;;9.40;100.00
8573;BME280;4324;42.012;24.872;2022-12-07T08:53:48;99041.00;;;9.33;100.00
8573;BME280;4324;42.012;24.872;2022-12-07T08:56:16;99038.31;;;9.25;100.00
8573;BME280;4324;42.012;24.872;2022-12-07T08:58:43;98958.41;;;8.70;100.00
8573;BME280;4324;42.012;24.872;2022-12-07T09:01:11;98958.94;;;8.74;100.00
8573;BME280;4324;42.012;24.872;2022-12-07T09:03:39;98983.63;;;8.91;100.00
8573;BME280;4324;42.012;24.872;2022-12-07T09:06:07;99045.28;;;9.34;100.00
8573;BME280;4324;42.012;24.872;2022-12-07T09:08:39;99028.13;;;9.38;100.00
8573;BME280;4324;42.012;24.872;2022-12-07T09:11:07;98996.69;;;9.27;100.00
8573;BME280;4324;42.012;24.872;2022-12-07T09:13:35;99016.78;;;9.45;100.00
8573;BME280;4324;42.012;24.872;2022-12-07T09:16:03;98969.44;;;9.26;100.00
8573;BME280;4324;42.012;24.872;2022-12-07T09:21:26;99011.38;;;9.63;100.00
8573;BME280;4324;42.012;24.872;2022-12-07T09:23:56;99001.00;;;9.62;100.00
8573;BME280;4324;42.012;24.872;2022-12-07T09:26:40;98988.41;;;9.64;100.00
8573;BME280;4324;42.012;24.872;2022-12-07T09:29:07;98989.78;;;9.68;100.00
8573;BME280;4324;42.012;24.872;2022-12-07T09:31:36;98963.28;;;9.52;100.00
8573;BME280;4324;42.012;24.872;2022-12-07T09:34:03;98998.22;;;9.72;100.00
8573;BME280;4324;42.012;24.872;2022-12-07T09:36:33;98955.66;;;9.49;100.00
8573;BME280;4324;42.012;24.872;2022-12-07T09:39:00;98986.66;;;9.73;100.00
8573;BME280;4324;42.012;24.872;2022-12-07T09:41:30;98966.94;;;9.67;100.00
8573;BME280;4324;42.012;24.872;2022-12-07T09:44:03;98972.63;;;9.80;100.00
8573;BME280;4324;42.012;24.872;2022-12-07T09:46:34;98966.34;;;9.81;100.00
8573;BME280;4324;42.012;24.872;2022-12-07T09:49:03;98956.25;;;9.85;100.00
8573;BME280;4324;42.012;24.872;2022-12-07T09:51:32;98964.88;;;10.03;100.00
8573;BME280;4324;42.012;24.872;2022-12-07T09:54:00;98967.22;;;10.06;100.00
8573;BME280;4324;42.012;24.872;2022-12-07T09:56:31;98947.19;;;10.04;100.00
8573;BME280;4324;42.012;24.872;2022-12-07T09:59:00;98944.72;;;10.02;100.00
8573;BME280;4324;42.012;24.872;2022-12-07T10:01:29;98947.69;;;10.07;100.00
8573;BME280;4324;42.012;24.872;2022-12-07T10:04:01;98942.06;;;10.10;100.00
8573;BME280;4324;42.012;24.872;2022-12-07T10:10:31;98915.13;;;10.07;100.00
8573;BME280;4324;42.012;24.872;2022-12-07T10:14:09;98936.13;;;10.25;100.00
8573;BME280;4324;42.012;24.872;2022-12-07T10:16:59;98937.13;;;10.24;100.00
8573;BME280;4324;42.012;24.872;2022-12-07T10:19:31;98942.28;;;10.25;100.00
8573;BME280;4324;42.012;24.872;2022-12-07T10:22:12;98924.56;;;10.17;100.00
8573;BME280;4324;42.012;24.872;2022-12-07T10:24:46;98932.19;;;10.29;100.00
8573;BME280;4324;42.012;24.872;2022-12-07T10:27:29;98879.59;;;10.01;100.00
8573;BME280;4324;42.012;24.872;2022-12-07T10:30:12;98933.69;;;10.39;100.00
8573;BME280;4324;42.012;24.872;2022-12-07T10:32:57;98901.72;;;10.25;100.00
8573;BME280;4324;42.012;24.872;2022-12-07T10:35:27;98900.09;;;10.24;100.00
8573;BME280;4324;42.012;24.872;2022-12-07T10:37:55;98914.66;;;10.36;100.00
8573;BME280;4324;42.012;24.872;2022-12-07T10:40:32;98928.72;;;10.45;100.00
8573;BME280;4324;42.012;24.872;2022-12-07T10:43:15;98924.91;;;10.39;100.00
8573;BME280;4324;42.012;24.872;2022-12-07T10:49:04;98920.59;;;10.54;100.00
8573;BME280;4324;42.012;24.872;2022-12-07T10:51:38;98903.06;;;10.45;100.00
8573;BME280;4324;42.012;24.872;2022-12-07T10:54:14;98929.19;;;10.64;100.00
8573;BME280;4324;42.012;24.872;2022-12-07T10:57:00;98918.59;;;10.64;100.00
8573;BME280;4324;42.012;24.872;2022-12-07T11:00:06;98919.25;;;10.58;100.00
8573;BME280;4324;42.012;24.872;2022-12-07T11:02:59;98928.19;;;10.49;100.00
8573;BME280;4324;42.012;24.872;2022-12-07T11:05:39;98905.72;;;10.29;100.00
8573;BME280;4324;42.012;24.872;2022-12-07T11:08:18;98927.91;;;10.36;100.00
8573;BME280;4324;42.012;24.872;2022-12-07T11:10:53;98892.50;;;10.12;100.00
8573;BME280;4324;42.012;24.872;2022-12-07T11:13:29;98916.66;;;10.26;100.00
8573;BME280;4324;42.012;24.872;2022-12-07T11:16:16;98910.19;;;10.20;100.00
8573;BME280;4324;42.012;24.872;2022-12-07T11:19:03;98897.41;;;10.15;100.00
8573;BME280;4324;42.012;24.872;2022-12-07T11:21:39;98886.19;;;10.05;100.00
8573;BME280;4324;42.012;24.872;2022-12-07T11:24:15;98895.78;;;10.14;100.00
8573;BME280;4324;42.012;24.872;2022-12-07T11:27:05;98892.81;;;10.17;100.00
8573;BME280;4324;42.012;24.872;2022-12-07T11:29:52;98856.44;;;10.03;100.00
8573;BME280;4324;42.012;24.872;2022-12-07T11:32:50;98885.56;;;10.28;100.00
8573;BME280;4324;42.012;24.872;2022-12-07T11:35:34;98884.88;;;10.26;100.00
8573;BME280;4324;42.012;24.872;2022-12-07T11:38:09;98887.03;;;10.30;100.00
8573;BME280;4324;42.012;24.872;2022-12-07T11:40:40;98871.47;;;10.19;100.00
8573;BME280;4324;42.012;24.872;2022-12-07T11:43:18;98887.88;;;10.31;100.00
8573;BME280;4324;42.012;24.872;2022-12-07T11:45:51;98873.31;;;10.27;100.00
8573;BME280;4324;42.012;24.872;2022-12-07T11:48:32;98879.44;;;10.35;100.00
8573;BME280;4324;42.012;24.872;2022-12-07T11:51:02;98869.81;;;10.34;100.00
8573;BME280;4324;42.012;24.872;2022-12-07T11:53:33;98872.16;;;10.46;100.00
8573;BME280;4324;42.012;24.872;2022-12-07T11:56:07;98860.72;;;10.53;100.00
8573;BME280;4324;42.012;24.872;2022-12-07T11:58:47;98861.31;;;10.63;100.00
8573;BME280;4324;42.012;24.872;2022-12-07T12:01:26;98854.03;;;10.74;100.00
8573;BME280;4324;42.012;24.872;2022-12-07T12:04:20;98799.81;;;10.53;100.00
8573;BME280;4324;42.012;24.872;2022-12-07T12:06:51;98835.94;;;10.85;100.00
8573;BME280;4324;42.012;24.872;2022-12-07T12:09:23;98822.88;;;10.84;100.00
8573;BME280;4324;42.012;24.872;2022-12-07T12:12:24;98843.16;;;11.00;100.00
8573;BME280;4324;42.012;24.872;2022-12-07T12:15:20;98829.75;;;11.01;100.00
8573;BME280;4324;42.012;24.872;2022-12-07T12:18:26;98829.28;;;10.98;100.00
8573;BME280;4324;42.012;24.872;2022-12-07T12:24:13;98822.63;;;10.94;100.00
8573;BME280;4324;42.012;24.872;2022-12-07T12:29:54;98814.25;;;10.82;100.00
8573;BME280;4324;42.012;24.872;2022-12-07T12:32:29;98807.50;;;10.71;100.00
8573;BME280;4324;42.012;24.872;2022-12-07T12:35:02;98811.50;;;10.67;100.00
8573;BME280;4324;42.012;24.872;2022-12-07T12:37:43;98793.19;;;10.57;100.00
8573;BME280;4324;42.012;24.872;2022-12-07T12:40:42;98823.22;;;10.81;100.00
8573;BME280;4324;42.012;24.872;2022-12-07T12:43:48;98830.16;;;10.82;100.00
8573;BME280;4324;42.012;24.872;2022-12-07T12:46:52;98811.47;;;10.75;100.00
8573;BME280;4324;42.012;24.872;2022-12-07T12:49:44;98830.63;;;10.85;100.00
8573;BME280;4324;42.012;24.872;2022-12-07T12:52:49;98803.88;;;10.72;100.00
8573;BME280;4324;42.012;24.872;2022-12-07T12:58:34;98827.47;;;10.90;100.00
8573;BME280;4324;42.012;24.872;2022-12-07T13:04:40;98805.59;;;10.96;100.00
8573;BME280;4324;42.012;24.872;2022-12-07T13:10:42;98797.81;;;10.95;100.00
8573;BME280;4324;42.012;24.872;2022-12-07T13:13:35;98785.44;;;10.87;100.00
8573;BME280;4324;42.012;24.872;2022-12-07T13:16:37;98797.63;;;10.96;100.00
8573;BME280;4324;42.012;24.872;2022-12-07T13:19:31;98785.94;;;10.82;100.00
8573;BME280;4324;42.012;24.872;2022-12-07T13:22:50;98804.63;;;10.89;100.00
8573;BME280;4324;42.012;24.872;2022-12-07T13:25:31;98808.63;;;10.85;100.00
8573;BME280;4324;42.012;24.872;2022-12-07T13:28:14;98814.25;;;10.82;100.00
8573;BME280;4324;42.012;24.872;2022-12-07T13:31:23;98812.31;;;10.76;100.00
8573;BME280;4324;42.012;24.872;2022-12-07T13:33:55;98798.25;;;10.67;100.00
8573;BME280;4324;42.012;24.872;2022-12-07T13:36:24;98777.19;;;10.43;100.00
8573;BME280;4324;42.012;24.872;2022-12-07T13:38:54;98809.06;;;10.57;100.00
8573;BME280;4324;42.012;24.872;2022-12-07T13:41:36;98810.75;;;10.50;100.00
8573;BME280;4324;42.012;24.872;2022-12-07T13:44:12;98793.25;;;10.33;100.00
8573;BME280;4324;42.012;24.872;2022-12-07T13:46:52;98792.94;;;10.28;100.00
8573;BME280;4324;42.012;24.872;2022-12-07T13:49:30;98810.44;;;10.37;100.00
8573;BME280;4324;42.012;24.872;2022-12-07T13:52:13;98802.69;;;10.27;100.00
8573;BME280;4324;42.012;24.872;2022-12-07T13:54:45;98801.84;;;10.27;100.00
8573;BME280;4324;42.012;24.872;2022-12-07T13:57:27;98791.59;;;10.15;100.00
8573;BME280;4324;42.012;24.872;2022-12-07T14:00:26;98739.13;;;9.72;100.00
8573;BME280;4324;42.012;24.872;2022-12-07T14:02:57;98727.53;;;9.56;100.00
8573;BME280;4324;42.012;24.872;2022-12-07T14:05:27;98818.41;;;10.04;100.00
8573;BME280;4324;42.012;24.872;2022-12-07T14:08:01;98816.25;;;10.00;100.00
8573;BME280;4324;42.012;24.872;2022-12-07T14:10:35;98812.47;;;9.94;100.00
8573;BME280;4324;42.012;24.872;2022-12-07T14:13:24;98819.06;;;9.90;100.00